createdAt,value
2023-04-18T00:00:00.711Z,15.3
2023-04-18T00:01:00.726Z,15.3
2023-04-18T00:02:00.782Z,15.3
2023-04-18T00:03:03.239Z,15.3
2023-04-18T00:04:00.853Z,15.2
2023-04-18T00:05:00.879Z,15.2
2023-04-18T00:06:00.735Z,15.1
2023-04-18T00:07:00.753Z,15.1
2023-04-18T00:08:00.666Z,15.1
2023-04-18T00:09:01.058Z,15.1
2023-04-18T00:10:01.414Z,15.1
2023-04-18T00:11:00.716Z,15.1
2023-04-18T00:12:00.719Z,15.1
2023-04-18T00:13:00.758Z,15.1
2023-04-18T00:14:00.763Z,15.1
2023-04-18T00:15:01.604Z,15.1
2023-04-18T00:16:00.773Z,15.1
2023-04-18T00:17:00.737Z,15.1
2023-04-18T00:18:00.971Z,15.1
2023-04-18T00:19:00.707Z,15.1
2023-04-18T00:20:00.808Z,15.1
2023-04-18T00:21:00.798Z,15.2
2023-04-18T00:22:00.704Z,15.2
2023-04-18T00:23:00.707Z,15.1
2023-04-18T00:24:01.004Z,15.1
2023-04-18T00:25:00.886Z,15.1
2023-04-18T00:26:00.822Z,15.1
2023-04-18T00:27:00.766Z,15.1
2023-04-18T00:28:00.689Z,15.1
2023-04-18T00:29:01.468Z,15.1
2023-04-18T00:30:00.898Z,15.1
2023-04-18T00:31:00.774Z,15.1
2023-04-18T00:32:00.706Z,15.1
2023-04-18T00:33:00.753Z,15.1
2023-04-18T00:34:00.728Z,15.1
2023-04-18T00:35:00.772Z,15.1
2023-04-18T00:36:00.726Z,15.1
2023-04-18T00:37:00.750Z,15.0
2023-04-18T00:38:00.749Z,15.1
2023-04-18T00:39:00.689Z,15.1
2023-04-18T00:40:00.688Z,15.0
2023-04-18T00:41:00.785Z,15.1
2023-04-18T00:42:01.104Z,15.0
2023-04-18T00:43:01.110Z,15.0
2023-04-18T00:44:00.746Z,15.0
2023-04-18T00:45:00.781Z,14.9
2023-04-18T00:46:00.746Z,15.0
2023-04-18T00:47:00.729Z,14.9
2023-04-18T00:48:00.950Z,14.8
2023-04-18T00:49:01.020Z,14.8
2023-04-18T00:50:00.984Z,14.9
2023-04-18T00:51:00.744Z,14.9
2023-04-18T00:52:01.664Z,14.9
2023-04-18T00:53:01.174Z,14.8
2023-04-18T00:54:02.601Z,14.9
2023-04-18T00:55:05.312Z,14.9
2023-04-18T00:56:01.117Z,14.9
2023-04-18T00:57:00.784Z,14.9
2023-04-18T00:58:00.744Z,14.9
2023-04-18T00:59:00.805Z,14.9
2023-04-18T01:00:04.211Z,14.9
2023-04-18T01:01:00.745Z,14.9
2023-04-18T01:02:01.661Z,14.9
2023-04-18T01:03:00.857Z,14.9
2023-04-18T01:04:00.852Z,14.9
2023-04-18T01:05:01.191Z,14.9
2023-04-18T01:06:00.785Z,14.9
2023-04-18T01:07:01.222Z,14.9
2023-04-18T01:08:01.403Z,14.9
2023-04-18T01:09:00.768Z,14.8
2023-04-18T01:10:01.033Z,14.8
2023-04-18T01:11:00.991Z,14.8
2023-04-18T01:12:00.702Z,14.8
2023-04-18T01:13:10.569Z,14.9
2023-04-18T01:14:01.614Z,14.9
2023-04-18T01:15:00.774Z,14.8
2023-04-18T01:16:00.981Z,14.8
2023-04-18T01:17:00.762Z,14.8
2023-04-18T01:18:00.802Z,14.7
2023-04-18T01:19:00.958Z,14.7
2023-04-18T01:20:01.104Z,14.7
2023-04-18T01:21:00.783Z,14.8
2023-04-18T01:22:00.748Z,14.8
2023-04-18T01:23:00.700Z,14.8
2023-04-18T01:24:09.237Z,14.8
2023-04-18T01:25:05.272Z,14.8
2023-04-18T01:26:01.204Z,14.7
2023-04-18T01:27:00.813Z,14.7
2023-04-18T01:28:01.084Z,14.7
2023-04-18T01:29:00.728Z,14.7
2023-04-18T01:30:00.722Z,14.7
2023-04-18T01:31:00.746Z,14.7
2023-04-18T01:32:00.700Z,14.7
2023-04-18T01:33:01.465Z,14.7
2023-04-18T01:34:00.967Z,14.7
2023-04-18T01:35:00.779Z,14.7
2023-04-18T01:36:00.754Z,14.7
2023-04-18T01:37:00.709Z,14.6
2023-04-18T01:38:00.719Z,14.6
2023-04-18T01:39:00.852Z,14.7
2023-04-18T01:40:00.729Z,14.7
2023-04-18T01:41:00.705Z,14.7
2023-04-18T01:42:00.732Z,14.8
2023-04-18T01:43:00.757Z,14.7
2023-04-18T01:44:00.784Z,14.7
2023-04-18T01:45:00.751Z,14.8
2023-04-18T01:46:00.689Z,14.8
2023-04-18T01:47:00.733Z,14.8
2023-04-18T01:48:00.818Z,14.8
2023-04-18T01:49:00.835Z,14.8
2023-04-18T01:50:01.005Z,14.7
2023-04-18T01:51:00.722Z,14.8
2023-04-18T01:52:00.716Z,14.8
2023-04-18T01:53:00.738Z,14.8
2023-04-18T01:54:00.712Z,14.8
2023-04-18T01:55:00.966Z,14.8
2023-04-18T01:56:00.687Z,14.8
2023-04-18T01:57:00.702Z,14.8
2023-04-18T01:58:00.705Z,14.8
2023-04-18T01:59:00.818Z,14.8
2023-04-18T02:00:00.785Z,14.7
2023-04-18T02:01:00.828Z,14.7
2023-04-18T02:02:00.745Z,14.7
2023-04-18T02:03:00.832Z,14.7
2023-04-18T02:04:00.760Z,14.7
2023-04-18T02:05:00.865Z,14.7
2023-04-18T02:06:01.959Z,14.6
2023-04-18T02:07:00.728Z,14.6
2023-04-18T02:08:00.726Z,14.6
2023-04-18T02:09:00.712Z,14.5
2023-04-18T02:10:01.433Z,14.5
2023-04-18T02:11:00.988Z,14.5
2023-04-18T02:12:01.118Z,14.5
2023-04-18T02:13:00.686Z,14.5
2023-04-18T02:14:00.690Z,14.4
2023-04-18T02:15:00.742Z,14.4
2023-04-18T02:16:00.769Z,14.4
2023-04-18T02:17:01.164Z,14.3
2023-04-18T02:18:00.843Z,14.3
2023-04-18T02:19:00.754Z,14.3
2023-04-18T02:20:00.784Z,14.2
2023-04-18T02:21:00.779Z,14.2
2023-04-18T02:22:00.724Z,14.2
2023-04-18T02:23:00.981Z,14.2
2023-04-18T02:24:00.768Z,14.2
2023-04-18T02:25:00.688Z,14.2
2023-04-18T02:26:00.752Z,14.2
2023-04-18T02:27:00.721Z,14.2
2023-04-18T02:28:00.830Z,14.2
2023-04-18T02:29:00.759Z,14.2
2023-04-18T02:30:00.845Z,14.2
2023-04-18T02:31:01.290Z,14.2
2023-04-18T02:32:00.751Z,14.2
2023-04-18T02:33:00.745Z,14.2
2023-04-18T02:34:00.728Z,14.2
2023-04-18T02:35:00.875Z,14.2
2023-04-18T02:36:00.705Z,14.2
2023-04-18T02:37:00.783Z,14.2
2023-04-18T02:38:00.720Z,14.2
2023-04-18T02:39:01.545Z,14.1
2023-04-18T02:40:00.786Z,14.1
2023-04-18T02:41:00.721Z,14.0
2023-04-18T02:42:00.731Z,14.0
2023-04-18T02:43:00.696Z,13.9
2023-04-18T02:44:00.758Z,13.8
2023-04-18T02:45:00.812Z,13.8
2023-04-18T02:46:00.733Z,13.7
2023-04-18T02:47:00.714Z,13.7
2023-04-18T02:48:00.765Z,13.7
2023-04-18T02:49:00.681Z,13.6
2023-04-18T02:50:01.434Z,13.6
2023-04-18T02:51:02.516Z,13.6
2023-04-18T02:52:00.731Z,13.6
2023-04-18T02:53:00.731Z,13.6
2023-04-18T02:54:00.744Z,13.6
2023-04-18T02:55:00.744Z,13.6
2023-04-18T02:56:01.036Z,13.6
2023-04-18T02:57:00.713Z,13.6
2023-04-18T02:58:00.716Z,13.5
2023-04-18T02:59:00.710Z,13.5
2023-04-18T03:00:00.737Z,13.5
2023-04-18T03:01:00.810Z,13.6
2023-04-18T03:02:00.837Z,13.6
2023-04-18T03:03:00.828Z,13.6
2023-04-18T03:04:00.728Z,13.6
2023-04-18T03:05:00.821Z,13.6
2023-04-18T03:06:00.704Z,13.6
2023-04-18T03:07:00.710Z,13.6
2023-04-18T03:08:00.727Z,13.5
2023-04-18T03:09:01.936Z,13.4
2023-04-18T03:10:00.707Z,13.4
2023-04-18T03:11:00.727Z,13.3
2023-04-18T03:12:00.751Z,13.3
2023-04-18T03:13:00.704Z,13.3
2023-04-18T03:14:00.714Z,13.2
2023-04-18T03:15:00.733Z,13.2
2023-04-18T03:16:00.763Z,13.2
2023-04-18T03:17:00.713Z,13.1
2023-04-18T03:18:00.727Z,13.1
2023-04-18T03:19:00.698Z,13.1
2023-04-18T03:20:00.796Z,13.1
2023-04-18T03:21:00.700Z,13.1
2023-04-18T03:22:00.705Z,13.2
2023-04-18T03:23:00.780Z,13.2
2023-04-18T03:24:00.777Z,13.3
2023-04-18T03:25:00.700Z,13.3
2023-04-18T03:26:00.764Z,13.3
2023-04-18T03:27:00.752Z,13.3
2023-04-18T03:28:00.718Z,13.3
2023-04-18T03:29:00.691Z,13.3
2023-04-18T03:30:01.350Z,13.3
2023-04-18T03:31:00.899Z,13.3
2023-04-18T03:32:00.803Z,13.4
2023-04-18T03:33:00.736Z,13.4
2023-04-18T03:34:00.765Z,13.3
2023-04-18T03:35:01.124Z,13.3
2023-04-18T03:36:00.753Z,13.3
2023-04-18T03:37:00.788Z,13.3
2023-04-18T03:38:00.726Z,13.3
2023-04-18T03:39:00.907Z,13.3
2023-04-18T03:40:00.736Z,13.3
2023-04-18T03:41:00.715Z,13.3
2023-04-18T03:42:00.681Z,13.4
2023-04-18T03:43:00.740Z,13.4
2023-04-18T03:44:00.698Z,13.4
2023-04-18T03:45:01.197Z,13.4
2023-04-18T03:46:00.965Z,13.4
2023-04-18T03:47:00.760Z,13.4
2023-04-18T03:48:00.835Z,13.4
2023-04-18T03:49:00.695Z,13.4
2023-04-18T03:50:00.718Z,13.4
2023-04-18T03:51:00.707Z,13.4
2023-04-18T03:52:00.742Z,13.5
2023-04-18T03:53:00.673Z,13.5
2023-04-18T03:54:00.762Z,13.5
2023-04-18T03:55:00.719Z,13.5
2023-04-18T03:56:00.840Z,13.5
2023-04-18T03:57:00.699Z,13.4
2023-04-18T03:58:00.699Z,13.4
2023-04-18T03:59:00.688Z,13.4
2023-04-18T04:00:00.722Z,13.4
2023-04-18T04:01:00.706Z,13.4
2023-04-18T04:02:00.823Z,13.4
2023-04-18T04:03:00.956Z,13.4
2023-04-18T04:04:01.224Z,13.3
2023-04-18T04:05:00.755Z,13.3
2023-04-18T04:06:00.691Z,13.3
2023-04-18T04:07:00.865Z,13.3
2023-04-18T04:08:00.679Z,13.3
2023-04-18T04:09:00.802Z,13.3
2023-04-18T04:10:00.747Z,13.3
2023-04-18T04:11:00.735Z,13.3
2023-04-18T04:12:00.727Z,13.3
2023-04-18T04:13:00.747Z,13.3
2023-04-18T04:14:00.765Z,13.3
2023-04-18T04:15:00.795Z,13.3
2023-04-18T04:16:01.129Z,13.2
2023-04-18T04:17:00.786Z,13.2
2023-04-18T04:18:00.821Z,13.2
2023-04-18T04:19:00.720Z,13.2
2023-04-18T04:20:00.923Z,13.2
2023-04-18T04:21:00.716Z,13.2
2023-04-18T04:22:00.787Z,13.3
2023-04-18T04:23:00.719Z,13.3
2023-04-18T04:24:00.699Z,13.2
2023-04-18T04:25:00.718Z,13.2
2023-04-18T04:26:00.731Z,13.2
2023-04-18T04:27:00.759Z,13.2
2023-04-18T04:28:00.727Z,13.2
2023-04-18T04:29:01.178Z,13.2
2023-04-18T04:30:00.745Z,13.2
2023-04-18T04:31:01.147Z,13.2
2023-04-18T04:32:00.762Z,13.3
2023-04-18T04:33:00.704Z,13.3
2023-04-18T04:34:00.699Z,13.3
2023-04-18T04:35:00.715Z,13.2
2023-04-18T04:36:00.699Z,13.2
2023-04-18T04:37:00.689Z,13.2
2023-04-18T04:38:00.730Z,13.2
2023-04-18T04:39:00.705Z,13.2
2023-04-18T04:40:00.823Z,13.2
2023-04-18T04:41:00.682Z,13.1
2023-04-18T04:42:00.727Z,13.2
2023-04-18T04:43:00.697Z,13.2
2023-04-18T04:44:00.692Z,13.1
2023-04-18T04:45:01.175Z,13.1
2023-04-18T04:46:02.142Z,13.1
2023-04-18T04:47:00.700Z,13.1
2023-04-18T04:48:00.740Z,13.1
2023-04-18T04:49:00.754Z,13.1
2023-04-18T04:50:00.859Z,13.1
2023-04-18T04:51:00.812Z,13.1
2023-04-18T04:52:01.998Z,13.1
2023-04-18T04:53:00.690Z,13.1
2023-04-18T04:54:00.722Z,13.1
2023-04-18T04:55:00.711Z,13.1
2023-04-18T04:56:00.727Z,13.1
2023-04-18T04:57:00.761Z,13.1
2023-04-18T04:58:00.721Z,13.1
2023-04-18T04:59:00.775Z,13.1
2023-04-18T05:00:00.737Z,13.1
2023-04-18T05:01:00.820Z,13.1
2023-04-18T05:02:00.835Z,13.1
2023-04-18T05:03:00.853Z,13.1
2023-04-18T05:04:00.981Z,13.1
2023-04-18T05:05:00.705Z,13.1
2023-04-18T05:06:00.935Z,13.1
2023-04-18T05:07:00.754Z,13.1
2023-04-18T05:08:00.934Z,13.1
2023-04-18T05:09:00.680Z,13.1
2023-04-18T05:10:00.843Z,13.1
2023-04-18T05:11:01.165Z,13.1
2023-04-18T05:12:00.697Z,13.1
2023-04-18T05:13:00.755Z,13.1
2023-04-18T05:14:00.666Z,13.1
2023-04-18T05:15:00.739Z,13.0
2023-04-18T05:16:00.720Z,13.0
2023-04-18T05:17:00.716Z,13.0
2023-04-18T05:18:00.791Z,13.0
2023-04-18T05:19:00.811Z,13.0
2023-04-18T05:20:00.755Z,13.0
2023-04-18T05:21:00.692Z,13.0
2023-04-18T05:22:00.708Z,13.0
2023-04-18T05:23:00.751Z,13.0
2023-04-18T05:24:00.769Z,13.0
2023-04-18T05:25:00.956Z,13.0
2023-04-18T05:26:00.710Z,13.0
2023-04-18T05:27:00.883Z,13.0
2023-04-18T05:28:00.759Z,13.0
2023-04-18T05:29:00.746Z,12.9
2023-04-18T05:30:00.705Z,12.9
2023-04-18T05:31:00.725Z,12.9
2023-04-18T05:32:00.800Z,12.9
2023-04-18T05:33:00.842Z,12.9
2023-04-18T05:34:00.688Z,12.9
2023-04-18T05:35:00.786Z,12.9
2023-04-18T05:36:00.681Z,12.9
2023-04-18T05:37:00.929Z,12.9
2023-04-18T05:38:00.699Z,12.9
2023-04-18T05:39:00.702Z,12.9
2023-04-18T05:40:01.215Z,12.9
2023-04-18T05:41:00.709Z,12.9
2023-04-18T05:42:00.709Z,12.9
2023-04-18T05:43:00.732Z,13.0
2023-04-18T05:44:05.417Z,13.0
2023-04-18T05:45:00.730Z,13.0
2023-04-18T05:46:00.784Z,13.0
2023-04-18T05:47:00.720Z,13.1
2023-04-18T05:48:00.790Z,13.1
2023-04-18T05:49:00.831Z,13.1
2023-04-18T05:50:00.725Z,13.1
2023-04-18T05:51:00.729Z,13.1
2023-04-18T05:52:00.710Z,13.2
2023-04-18T05:53:00.710Z,13.3
2023-04-18T05:54:00.711Z,13.3
2023-04-18T05:55:00.705Z,13.3
2023-04-18T05:56:00.737Z,13.3
2023-04-18T05:57:02.557Z,13.3
2023-04-18T05:58:00.742Z,13.4
2023-04-18T05:59:00.760Z,13.4
2023-04-18T06:00:00.801Z,13.4
2023-04-18T06:01:00.709Z,13.5
2023-04-18T06:02:00.768Z,13.6
2023-04-18T06:03:00.890Z,13.7
2023-04-18T06:04:00.943Z,13.8
2023-04-18T06:05:00.809Z,13.9
2023-04-18T06:06:00.914Z,14.0
2023-04-18T06:07:00.695Z,14.2
2023-04-18T06:08:00.800Z,14.4
2023-04-18T06:09:00.907Z,14.6
2023-04-18T06:10:00.734Z,14.8
2023-04-18T06:11:00.734Z,14.9
2023-04-18T06:12:00.727Z,15.1
2023-04-18T06:13:00.960Z,15.3
2023-04-18T06:14:00.999Z,15.4
2023-04-18T06:15:00.721Z,15.6
2023-04-18T06:16:00.775Z,15.8
2023-04-18T06:17:00.788Z,15.9
2023-04-18T06:18:00.769Z,16.0
2023-04-18T06:19:01.476Z,16.1
2023-04-18T06:20:01.050Z,16.3
2023-04-18T06:21:00.730Z,16.5
2023-04-18T06:22:00.687Z,16.6
2023-04-18T06:23:00.721Z,16.7
2023-04-18T06:24:00.704Z,16.8
2023-04-18T06:25:00.706Z,16.8
2023-04-18T06:26:00.685Z,17.0
2023-04-18T06:27:00.730Z,17.2
2023-04-18T06:28:00.712Z,17.3
2023-04-18T06:29:00.831Z,17.5
2023-04-18T06:30:01.004Z,17.6
2023-04-18T06:31:00.698Z,17.7
2023-04-18T06:32:00.805Z,17.9
2023-04-18T06:33:00.762Z,17.9
2023-04-18T06:34:00.689Z,17.9
2023-04-18T06:35:00.760Z,17.9
2023-04-18T06:36:00.935Z,17.8
2023-04-18T06:37:01.136Z,17.8
2023-04-18T06:38:00.947Z,17.8
2023-04-18T06:39:00.688Z,17.7
2023-04-18T06:40:00.702Z,17.8
2023-04-18T06:41:00.810Z,17.8
2023-04-18T06:42:00.722Z,17.8
2023-04-18T06:43:00.729Z,17.9
2023-04-18T06:44:04.065Z,17.8
2023-04-18T06:45:00.744Z,17.8
2023-04-18T06:46:01.840Z,17.8
2023-04-18T06:47:00.848Z,17.7
2023-04-18T06:48:02.189Z,17.6
2023-04-18T06:49:00.770Z,17.6
2023-04-18T06:50:00.738Z,17.5
2023-04-18T06:51:00.731Z,17.5
2023-04-18T06:52:00.773Z,17.5
2023-04-18T06:53:00.758Z,17.5
2023-04-18T06:54:00.788Z,17.6
2023-04-18T06:55:00.707Z,17.7
2023-04-18T06:56:00.713Z,17.8
2023-04-18T06:57:00.724Z,17.8
2023-04-18T06:58:00.733Z,17.8
2023-04-18T06:59:00.730Z,17.8
2023-04-18T07:00:00.757Z,17.7
2023-04-18T07:01:00.741Z,17.7
2023-04-18T07:02:00.750Z,17.7
2023-04-18T07:03:00.940Z,17.7
2023-04-18T07:04:00.744Z,17.6
2023-04-18T07:05:00.684Z,17.7
2023-04-18T07:06:00.804Z,17.8
2023-04-18T07:07:01.028Z,17.8
2023-04-18T07:08:00.722Z,17.8
2023-04-18T07:09:00.988Z,17.7
2023-04-18T07:10:00.828Z,17.8
2023-04-18T07:11:00.736Z,17.8
2023-04-18T07:12:00.777Z,17.9
2023-04-18T07:13:00.684Z,18.0
2023-04-18T07:14:00.784Z,18.0
2023-04-18T07:15:00.741Z,18.1
2023-04-18T07:16:00.737Z,18.2
2023-04-18T07:17:00.894Z,18.3
2023-04-18T07:18:01.027Z,18.5
2023-04-18T07:19:00.683Z,18.6
2023-04-18T07:20:00.688Z,18.8
2023-04-18T07:21:00.673Z,18.9
2023-04-18T07:22:00.713Z,19.0
2023-04-18T07:23:00.814Z,19.1
2023-04-18T07:24:00.692Z,19.2
2023-04-18T07:25:00.866Z,19.3
2023-04-18T07:26:00.703Z,19.4
2023-04-18T07:27:01.563Z,19.5
2023-04-18T07:28:00.843Z,19.6
2023-04-18T07:29:00.715Z,19.6
2023-04-18T07:30:01.054Z,19.7
2023-04-18T07:31:00.750Z,19.8
2023-04-18T07:32:00.900Z,20.1
2023-04-18T07:33:00.725Z,20.3
2023-04-18T07:34:00.787Z,20.3
2023-04-18T07:35:01.108Z,20.3
2023-04-18T07:36:00.785Z,20.3
2023-04-18T07:37:00.688Z,20.4
2023-04-18T07:38:00.746Z,20.4
2023-04-18T07:39:00.816Z,20.4
2023-04-18T07:40:00.917Z,20.5
2023-04-18T07:41:01.315Z,20.4
2023-04-18T07:42:01.796Z,20.6
2023-04-18T07:43:00.700Z,20.6
2023-04-18T07:44:01.016Z,20.5
2023-04-18T07:45:00.766Z,20.4
2023-04-18T07:46:00.875Z,20.4
2023-04-18T07:47:00.925Z,20.4
2023-04-18T07:48:01.282Z,20.3
2023-04-18T07:49:00.696Z,20.3
2023-04-18T07:50:01.048Z,20.3
2023-04-18T07:51:00.804Z,20.3
2023-04-18T07:52:00.807Z,20.4
2023-04-18T07:53:00.869Z,20.4
2023-04-18T07:54:00.752Z,20.4
2023-04-18T07:55:00.697Z,20.3
2023-04-18T07:56:00.687Z,20.2
2023-04-18T07:57:00.722Z,20.0
2023-04-18T07:58:00.770Z,19.8
2023-04-18T07:59:00.742Z,19.8
2023-04-18T08:00:00.737Z,19.7
2023-04-18T08:01:01.152Z,19.6
2023-04-18T08:02:00.810Z,19.5
2023-04-18T08:03:00.886Z,19.6
2023-04-18T08:04:01.004Z,19.5
2023-04-18T08:05:00.949Z,19.4
2023-04-18T08:06:00.758Z,19.4
2023-04-18T08:07:00.754Z,19.4
2023-04-18T08:08:00.741Z,19.5
2023-04-18T08:09:00.779Z,19.5
2023-04-18T08:10:00.869Z,19.4
2023-04-18T08:11:00.694Z,19.4
2023-04-18T08:12:00.713Z,19.5
2023-04-18T08:13:01.012Z,19.6
2023-04-18T08:14:00.818Z,19.6
2023-04-18T08:15:00.714Z,19.6
2023-04-18T08:16:00.754Z,19.6
2023-04-18T08:17:00.696Z,19.6
2023-04-18T08:18:01.018Z,19.6
2023-04-18T08:19:00.743Z,19.5
2023-04-18T08:20:00.824Z,19.5
2023-04-18T08:21:00.749Z,19.5
2023-04-18T08:22:08.578Z,19.5
2023-04-18T08:24:00.717Z,19.4
2023-04-18T08:25:04.927Z,19.4
2023-04-18T08:26:00.695Z,19.4
2023-04-18T08:27:00.706Z,19.4
2023-04-18T08:28:00.879Z,19.5
2023-04-18T08:29:00.757Z,19.5
2023-04-18T08:30:00.860Z,19.5
2023-04-18T08:31:00.780Z,19.6
2023-04-18T08:32:00.789Z,19.7
2023-04-18T08:33:00.884Z,19.8
2023-04-18T08:34:01.700Z,19.8
2023-04-18T08:35:00.775Z,19.7
2023-04-18T08:36:00.693Z,19.7
2023-04-18T08:37:00.850Z,19.6
2023-04-18T08:38:00.810Z,19.4
2023-04-18T08:39:00.730Z,19.3
2023-04-18T08:40:02.518Z,19.4
2023-04-18T08:41:00.724Z,19.3
2023-04-18T08:42:00.752Z,19.5
2023-04-18T08:43:00.938Z,19.4
2023-04-18T08:44:00.923Z,19.5
2023-04-18T08:45:00.725Z,19.4
2023-04-18T08:46:00.848Z,19.4
2023-04-18T08:47:00.705Z,19.3
2023-04-18T08:48:00.772Z,19.3
2023-04-18T08:49:01.283Z,19.2
2023-04-18T08:50:00.792Z,19.2
2023-04-18T08:51:00.775Z,19.2
2023-04-18T08:52:01.492Z,19.2
2023-04-18T08:53:00.758Z,19.3
2023-04-18T08:54:01.660Z,19.3
2023-04-18T08:55:00.780Z,19.3
2023-04-18T08:56:00.960Z,19.4
2023-04-18T08:57:04.934Z,19.5
2023-04-18T08:58:00.989Z,19.5
2023-04-18T08:59:00.738Z,19.5
2023-04-18T09:00:00.778Z,19.5
2023-04-18T09:01:01.661Z,19.5
2023-04-18T09:02:01.588Z,19.6
2023-04-18T09:03:00.928Z,19.5
2023-04-18T09:04:00.812Z,19.5
2023-04-18T09:05:08.867Z,19.5
2023-04-18T09:06:10.594Z,19.5
2023-04-18T09:07:01.522Z,19.4
2023-04-18T09:08:10.582Z,19.4
2023-04-18T09:09:00.703Z,19.3
2023-04-18T09:10:00.726Z,19.3
2023-04-18T09:11:10.560Z,19.4
2023-04-18T09:12:08.761Z,19.5
2023-04-18T09:13:01.380Z,19.5
2023-04-18T09:14:00.730Z,19.5
2023-04-18T09:15:10.606Z,19.5
2023-04-18T09:16:00.782Z,19.7
2023-04-18T09:17:01.053Z,19.8
2023-04-18T09:18:00.794Z,19.9
2023-04-18T09:19:08.837Z,19.9
2023-04-18T09:20:01.482Z,19.9
2023-04-18T09:21:10.595Z,19.8
2023-04-18T09:22:01.312Z,19.9
2023-04-18T09:23:01.988Z,20.0
2023-04-18T09:24:10.674Z,20.0
2023-04-18T09:25:00.738Z,20.1
2023-04-18T09:26:00.752Z,20.2
2023-04-18T09:27:00.703Z,20.2
2023-04-18T09:28:01.617Z,20.2
2023-04-18T09:29:00.733Z,20.4
2023-04-18T09:30:00.728Z,20.5
2023-04-18T09:31:08.933Z,20.6
2023-04-18T09:32:00.832Z,20.8
2023-04-18T09:33:01.283Z,20.9
2023-04-18T09:34:00.736Z,21.0
2023-04-18T09:35:03.433Z,21.1
2023-04-18T09:36:10.593Z,21.2
2023-04-18T09:37:04.673Z,21.5
2023-04-18T09:38:00.792Z,21.7
2023-04-18T09:39:00.699Z,22.0
2023-04-18T09:40:10.618Z,22.1
2023-04-18T09:41:08.569Z,22.2
2023-04-18T09:42:00.807Z,22.3
2023-04-18T09:43:10.559Z,22.3
2023-04-18T09:44:10.147Z,22.4
2023-04-18T09:45:02.421Z,22.3
2023-04-18T09:46:02.129Z,22.4
2023-04-18T09:47:00.808Z,22.3
2023-04-18T09:48:00.734Z,22.2
2023-04-18T09:49:00.938Z,22.1
2023-04-18T09:50:05.462Z,22.2
2023-04-18T09:51:04.242Z,22.2
2023-04-18T09:52:03.732Z,22.4
2023-04-18T09:53:01.206Z,22.4
2023-04-18T09:54:02.517Z,22.4
2023-04-18T09:55:01.725Z,22.3
2023-04-18T09:56:01.225Z,22.1
2023-04-18T09:57:01.997Z,22.0
2023-04-18T09:58:02.327Z,22.1
2023-04-18T09:59:08.814Z,22.0
2023-04-18T10:00:03.068Z,22.0
2023-04-18T10:01:01.645Z,21.9
2023-04-18T10:02:02.059Z,22.0
2023-04-18T10:03:01.750Z,22.1
2023-04-18T10:04:01.930Z,22.1
2023-04-18T10:05:03.987Z,22.0
2023-04-18T10:06:00.907Z,22.0
2023-04-18T10:07:01.201Z,22.0
2023-04-18T10:08:01.058Z,21.9
2023-04-18T10:09:02.763Z,21.8
2023-04-18T10:10:00.688Z,21.9
2023-04-18T10:11:00.793Z,21.9
2023-04-18T10:12:01.045Z,22.0
2023-04-18T10:13:01.850Z,22.0
2023-04-18T10:14:02.374Z,22.0
2023-04-18T10:15:00.842Z,21.9
2023-04-18T10:16:01.277Z,21.9
2023-04-18T10:17:00.826Z,21.6
2023-04-18T10:18:05.831Z,21.6
2023-04-18T10:19:10.640Z,21.6
2023-04-18T10:20:04.659Z,21.6
2023-04-18T10:21:01.487Z,21.6
2023-04-18T10:22:00.848Z,21.7
2023-04-18T10:23:10.602Z,21.7
2023-04-18T10:24:00.729Z,21.6
2023-04-18T10:25:00.732Z,21.7
2023-04-18T10:26:01.263Z,21.7
2023-04-18T10:27:00.836Z,21.6
2023-04-18T10:28:01.778Z,21.7
2023-04-18T10:29:00.726Z,21.6
2023-04-18T10:30:00.819Z,21.7
2023-04-18T10:31:01.012Z,21.8
2023-04-18T10:32:07.900Z,21.7
2023-04-18T10:33:15.447Z,21.8
2023-04-18T10:34:06.131Z,21.8
2023-04-18T10:35:00.804Z,21.7
2023-04-18T10:36:03.369Z,21.7
2023-04-18T10:37:04.214Z,21.8
2023-04-18T10:38:00.735Z,21.8
2023-04-18T10:39:00.744Z,21.8
2023-04-18T10:40:00.833Z,21.8
2023-04-18T10:41:10.583Z,21.7
2023-04-18T10:42:00.708Z,21.8
2023-04-18T10:43:00.792Z,21.8
2023-04-18T10:44:11.418Z,21.9
2023-04-18T10:45:10.567Z,21.9
2023-04-18T10:46:14.343Z,21.7
2023-04-18T10:47:08.099Z,21.7
2023-04-18T10:48:10.808Z,21.6
2023-04-18T10:49:10.589Z,21.6
2023-04-18T10:50:00.722Z,21.6
2023-04-18T10:51:10.599Z,21.6
2023-04-18T10:52:01.547Z,21.7
2023-04-18T10:53:00.702Z,21.8
2023-04-18T10:54:01.557Z,21.8
2023-04-18T10:55:06.500Z,21.8
2023-04-18T10:56:02.575Z,22.0
2023-04-18T10:57:01.628Z,22.1
2023-04-18T10:58:01.616Z,21.9
2023-04-18T10:59:01.464Z,22.0
2023-04-18T11:00:00.861Z,22.2
2023-04-18T11:01:02.379Z,22.4
2023-04-18T11:02:10.641Z,22.6
2023-04-18T11:03:00.900Z,23.0
2023-04-18T11:04:01.099Z,23.1
2023-04-18T11:05:02.517Z,23.2
2023-04-18T11:06:01.203Z,23.3
2023-04-18T11:07:00.800Z,23.4
2023-04-18T11:08:00.683Z,23.5
2023-04-18T11:09:10.653Z,23.5
2023-04-18T11:10:01.137Z,23.6
2023-04-18T11:11:00.739Z,23.9
2023-04-18T11:12:02.648Z,24.2
2023-04-18T11:13:04.508Z,24.4
2023-04-18T11:14:00.685Z,24.4
2023-04-18T11:15:01.365Z,24.4
2023-04-18T11:16:00.700Z,24.3
2023-04-18T11:17:10.586Z,24.3
2023-04-18T11:18:01.972Z,24.2
2023-04-18T11:19:10.565Z,24.4
2023-04-18T11:20:03.457Z,24.0
2023-04-18T11:21:00.766Z,24.3
2023-04-18T11:22:00.767Z,24.2
2023-04-18T11:23:00.697Z,24.5
2023-04-18T11:24:01.297Z,24.3
2023-04-18T11:25:05.882Z,24.3
2023-04-18T11:26:00.740Z,24.2
2023-04-18T11:27:02.080Z,24.2
2023-04-18T11:28:01.528Z,24.2
2023-04-18T11:29:00.747Z,24.2
2023-04-18T11:30:00.736Z,24.1
2023-04-18T11:31:00.724Z,24.0
2023-04-18T11:32:00.781Z,24.0
2023-04-18T11:33:04.017Z,24.2
2023-04-18T11:34:00.980Z,24.1
2023-04-18T11:35:01.360Z,24.1
2023-04-18T11:36:01.381Z,24.0
2023-04-18T11:37:04.598Z,24.0
2023-04-18T11:38:00.762Z,24.1
2023-04-18T11:39:00.787Z,24.2
2023-04-18T11:40:01.150Z,24.3
2023-04-18T11:41:01.789Z,24.5
2023-04-18T11:42:00.718Z,24.7
2023-04-18T11:43:02.723Z,24.9
2023-04-18T11:44:04.649Z,24.8
2023-04-18T11:45:01.138Z,25.0
2023-04-18T11:46:00.813Z,24.8
2023-04-18T11:47:00.698Z,25.0
2023-04-18T11:48:01.142Z,24.8
2023-04-18T11:49:00.852Z,23.9
2023-04-18T11:50:02.161Z,23.9
2023-04-18T11:51:00.728Z,24.0
2023-04-18T11:52:09.732Z,24.1
2023-04-18T11:53:00.757Z,24.2
2023-04-18T11:54:00.975Z,24.1
2023-04-18T11:55:10.563Z,24.4
2023-04-18T11:56:00.934Z,24.4
2023-04-18T11:57:00.736Z,24.6
2023-04-18T11:58:00.808Z,24.7
2023-04-18T11:59:07.316Z,25.1
2023-04-18T12:00:00.715Z,25.5
2023-04-18T12:01:10.579Z,25.8
2023-04-18T12:02:12.605Z,26.1
2023-04-18T12:03:01.901Z,26.5
2023-04-18T12:04:00.901Z,26.8
2023-04-18T12:05:01.016Z,26.8
2023-04-18T12:06:00.905Z,27.0
2023-04-18T12:07:00.869Z,27.0
2023-04-18T12:08:04.725Z,27.4
2023-04-18T12:09:00.702Z,27.6
2023-04-18T12:10:01.200Z,27.4
2023-04-18T12:11:00.695Z,27.6
2023-04-18T12:12:01.886Z,27.9
2023-04-18T12:13:00.975Z,28.2
2023-04-18T12:14:02.566Z,28.2
2023-04-18T12:15:00.738Z,28.0
2023-04-18T12:16:01.126Z,28.0
2023-04-18T12:17:02.382Z,27.6
2023-04-18T12:18:03.096Z,27.9
2023-04-18T12:19:00.789Z,28.0
2023-04-18T12:20:01.828Z,27.9
2023-04-18T12:21:03.706Z,27.9
2023-04-18T12:22:01.646Z,27.5
2023-04-18T12:23:00.715Z,28.0
2023-04-18T12:24:10.570Z,27.7
2023-04-18T12:25:10.570Z,27.8
2023-04-18T12:26:01.970Z,27.9
2023-04-18T12:27:00.725Z,27.8
2023-04-18T12:28:03.109Z,27.9
2023-04-18T12:29:00.718Z,27.2
2023-04-18T12:30:00.780Z,27.5
2023-04-18T12:31:01.109Z,27.1
2023-04-18T12:32:00.805Z,26.8
2023-04-18T12:33:02.053Z,27.2
2023-04-18T12:34:00.719Z,27.2
2023-04-18T12:35:00.715Z,27.4
2023-04-18T12:36:00.784Z,27.4
2023-04-18T12:37:00.686Z,27.3
2023-04-18T12:38:01.518Z,27.0
2023-04-18T12:39:00.740Z,26.9
2023-04-18T12:40:00.757Z,27.0
2023-04-18T12:41:00.774Z,26.9
2023-04-18T12:42:00.694Z,27.0
2023-04-18T12:43:02.962Z,27.1
2023-04-18T12:44:00.772Z,27.0
2023-04-18T12:45:00.734Z,26.8
2023-04-18T12:46:00.743Z,27.0
2023-04-18T12:47:00.743Z,26.8
2023-04-18T12:48:00.881Z,26.8
2023-04-18T12:49:00.716Z,27.0
2023-04-18T12:50:00.770Z,26.9
2023-04-18T12:51:00.701Z,26.7
2023-04-18T12:52:00.758Z,26.8
2023-04-18T12:53:00.922Z,26.9
2023-04-18T12:54:00.767Z,27.0
2023-04-18T12:55:00.702Z,27.0
2023-04-18T12:56:00.761Z,26.7
2023-04-18T12:57:00.752Z,26.6
2023-04-18T12:58:00.822Z,26.7
2023-04-18T12:59:00.708Z,26.1
2023-04-18T13:00:00.925Z,26.5
2023-04-18T13:01:00.797Z,26.6
2023-04-18T13:02:00.829Z,26.4
2023-04-18T13:03:01.014Z,26.6
2023-04-18T13:04:11.939Z,26.6
2023-04-18T13:05:00.823Z,26.6
2023-04-18T13:06:00.804Z,26.8
2023-04-18T13:07:00.733Z,26.9
2023-04-18T13:09:00.722Z,26.9
2023-04-18T13:10:01.115Z,26.8
2023-04-18T13:11:00.772Z,26.3
2023-04-18T13:12:00.728Z,26.4
2023-04-18T13:13:00.742Z,26.6
2023-04-18T13:14:00.930Z,26.7
2023-04-18T13:15:00.765Z,26.8
2023-04-18T13:16:00.795Z,27.0
2023-04-18T13:17:00.879Z,27.0
2023-04-18T13:18:00.771Z,26.8
2023-04-18T13:19:00.710Z,27.0
2023-04-18T13:20:01.055Z,27.0